Time;durP1;ratioP1;P1;durP2;ratioP2;P2;SDS_P1;SDS_P2;PMS_P1;PMS_P2;Temp;Humidity;BMP_temperature;BMP_pressure;BME280_temperature;BME280_humidity;BME280_pressure;Samples;Min_cycle;Max_cycle;Signal;HPM_P1;HPM_P2
2023/04/22 00:01:01;;;;;;;9.85;7.25;;;;;;;12.41;100.00;101026.00;4981267;28;20060;-74
2023/04/22 00:03:28;;;;;;;10.10;7.53;;;;;;;12.40;100.00;101012.81;5021052;28;20133;-74
2023/04/22 00:05:56;;;;;;;9.77;6.32;;;;;;;12.39;100.00;100996.06;5017056;28;20494;-74
2023/04/22 00:08:24;;;;;;;8.02;7.18;;;;;;;12.39;100.00;100990.78;5024858;28;20056;-74
2023/04/22 00:10:51;;;;;;;8.02;7.18;;;;;;;12.39;100.00;100979.34;5028742;28;20045;-74
2023/04/22 00:13:19;;;;;;;11.77;7.43;;;;;;;12.34;100.00;100979.34;5040991;28;20072;-74
2023/04/22 00:15:46;;;;;;;8.02;7.15;;;;;;;12.31;100.00;100986.41;4972655;28;21905;-74
2023/04/22 00:18:14;;;;;;;9.43;7.53;;;;;;;12.27;100.00;100990.81;4989462;28;20060;-74
2023/04/22 00:20:42;;;;;;;9.25;6.85;;;;;;;12.23;100.00;100984.66;5033919;28;20111;-74
2023/04/22 00:23:11;;;;;;;8.63;7.35;;;;;;;12.20;100.00;100991.72;5018068;28;20060;-74
2023/04/22 00:25:39;;;;;;;9.82;6.78;;;;;;;12.14;100.00;100992.59;5023753;28;20052;-75
2023/04/22 00:28:07;;;;;;;8.68;7.20;;;;;;;12.11;100.00;100991.72;5022820;28;20056;-74
2023/04/22 00:30:35;;;;;;;10.40;7.50;;;;;;;12.04;100.00;100989.09;5024716;28;20044;-74
2023/04/22 00:33:02;;;;;;;12.02;6.63;;;;;;;11.98;100.00;100978.50;4999069;28;20048;-74
2023/04/22 00:35:30;;;;;;;13.10;6.53;;;;;;;11.92;100.00;100981.16;5019776;28;20060;-74
2023/04/22 00:37:57;;;;;;;8.60;7.15;;;;;;;11.85;100.00;100976.72;4996534;28;20057;-74
2023/04/22 00:40:24;;;;;;;9.30;7.45;;;;;;;11.76;100.00;100967.06;5041294;28;20040;-74
2023/04/22 00:42:52;;;;;;;8.52;7.60;;;;;;;11.69;100.00;100981.13;4987680;28;20053;-74
2023/04/22 00:45:19;;;;;;;12.32;8.32;;;;;;;11.61;100.00;100974.97;5028077;28;20509;-74
2023/04/22 00:47:47;;;;;;;10.60;7.35;;;;;;;11.56;100.00;100984.63;4986172;28;20050;-74
2023/04/22 00:50:15;;;;;;;9.05;7.57;;;;;;;11.49;100.00;100984.63;5016018;28;20052;-74
2023/04/22 00:52:43;;;;;;;10.10;7.60;;;;;;;11.43;100.00;100979.31;5021359;28;20037;-74
2023/04/22 00:55:11;;;;;;;10.77;8.27;;;;;;;11.38;100.00;100969.63;5035258;28;20216;-74
2023/04/22 00:57:41;;;;;;;9.70;7.55;;;;;;;11.32;100.00;100979.31;4998151;28;20113;-74
2023/04/22 01:00:09;;;;;;;11.73;8.00;;;;;;;11.29;100.00;100984.56;5024659;28;20496;-74
2023/04/22 01:02:37;;;;;;;11.85;8.30;;;;;;;11.26;100.00;100983.69;4981328;28;20049;-74
2023/04/22 01:05:07;;;;;;;10.23;8.38;;;;;;;11.24;100.00;100988.94;5038990;28;20060;-74
2023/04/22 01:07:35;;;;;;;10.55;8.63;;;;;;;11.21;100.00;100977.50;5020869;28;20053;-74
2023/04/22 01:10:03;;;;;;;12.13;8.50;;;;;;;11.19;100.00;100985.44;5036323;28;20379;-74
2023/04/22 01:12:31;;;;;;;9.30;8.15;;;;;;;11.21;100.00;100977.50;5029117;28;20041;-74
2023/04/22 01:14:58;;;;;;;10.48;8.05;;;;;;;11.22;100.00;100966.09;5039687;28;20072;-74
2023/04/22 01:17:27;;;;;;;13.02;8.82;;;;;;;11.23;100.00;100959.97;5043230;28;20432;-74
2023/04/22 01:19:54;;;;;;;9.68;8.68;;;;;;;11.24;100.00;100956.41;4995756;28;20049;-74
2023/04/22 01:22:23;;;;;;;9.57;8.50;;;;;;;11.27;100.00;100952.03;5044097;28;20409;-74
2023/04/22 01:24:50;;;;;;;13.73;9.15;;;;;;;11.28;100.00;100948.50;5025824;28;20050;-74
2023/04/22 01:27:18;;;;;;;10.50;8.68;;;;;;;11.29;100.00;100946.78;5006927;28;20620;-74
2023/04/22 01:29:46;;;;;;;9.52;8.60;;;;;;;11.29;100.00;100945.00;5022242;28;20509;-74
2023/04/22 01:32:13;;;;;;;13.38;8.75;;;;;;;11.27;100.00;100945.88;5031689;28;20053;-73
2023/04/22 01:34:41;;;;;;;13.40;8.90;;;;;;;11.25;100.00;100939.72;4969763;28;20120;-74
2023/04/22 01:37:08;;;;;;;9.77;8.52;;;;;;;11.23;100.00;100942.38;5019677;28;20053;-73
2023/04/22 01:39:36;;;;;;;10.40;8.82;;;;;;;11.24;100.00;100941.47;5013292;28;20060;-74
2023/04/22 01:42:04;;;;;;;10.75;8.52;;;;;;;11.22;100.00;100934.44;5022898;28;20450;-74
2023/04/22 01:44:31;;;;;;;9.27;8.30;;;;;;;11.22;100.00;100922.13;4969618;28;20037;-73
2023/04/22 01:46:59;;;;;;;11.10;8.18;;;;;;;11.21;100.00;100901.91;5038235;28;20877;-73
2023/04/22 01:49:26;;;;;;;9.80;8.88;;;;;;;11.23;100.00;100908.06;4995899;28;20045;-74
2023/04/22 01:51:54;;;;;;;10.15;7.75;;;;;;;11.24;100.00;100917.72;5040602;28;20041;-73
2023/04/22 01:54:21;;;;;;;12.40;8.80;;;;;;;11.25;100.00;100927.41;5031636;28;20058;-74
2023/04/22 01:56:52;;;;;;;12.70;9.18;;;;;;;11.25;100.00;100926.53;5024121;28;20052;-73
2023/04/22 01:59:22;;;;;;;13.07;8.60;;;;;;;11.22;100.00;100924.75;5014258;28;20041;-73
2023/04/22 02:01:49;;;;;;;16.80;9.50;;;;;;;11.19;100.00;100924.78;5042743;28;20072;-73
2023/04/22 02:04:17;;;;;;;11.13;8.70;;;;;;;11.19;100.00;100921.22;4995003;28;20089;-73
2023/04/22 02:06:45;;;;;;;8.80;7.88;;;;;;;11.18;100.00;100919.50;5022030;28;20045;-74
2023/04/22 02:09:12;;;;;;;10.38;8.45;;;;;;;11.19;100.00;100913.31;5015338;28;20049;-73
2023/04/22 02:11:39;;;;;;;10.32;8.88;;;;;;;11.20;100.00;100917.72;5027161;28;20048;-73
2023/04/22 02:14:06;;;;;;;14.00;8.80;;;;;;;11.18;100.00;100915.09;5038468;28;20045;-73
2023/04/22 02:16:34;;;;;;;9.52;8.55;;;;;;;11.18;100.00;100909.81;5021955;28;20506;-73
2023/04/22 02:19:01;;;;;;;10.80;8.43;;;;;;;11.18;100.00;100914.22;5024522;28;20053;-74
2023/04/22 02:21:31;;;;;;;11.93;9.35;;;;;;;11.16;100.00;100910.69;4973299;28;20041;-73
2023/04/22 02:23:59;;;;;;;10.50;8.48;;;;;;;11.15;100.00;100903.66;5040578;28;20049;-74
2023/04/22 02:26:27;;;;;;;9.20;7.72;;;;;;;11.10;100.00;100907.16;5031418;28;20042;-74
2023/04/22 02:28:55;;;;;;;10.10;8.52;;;;;;;11.09;100.00;100904.50;5035547;28;20434;-74
2023/04/22 02:31:22;;;;;;;10.82;8.52;;;;;;;11.06;100.00;100894.84;5012745;28;20045;-73
2023/04/22 02:33:49;;;;;;;10.90;7.47;;;;;;;11.03;100.00;100893.97;5028340;28;20398;-74
2023/04/22 02:36:17;;;;;;;9.77;8.00;;;;;;;11.00;100.00;100897.47;4976738;28;20501;-73
2023/04/22 02:38:45;;;;;;;12.63;7.90;;;;;;;10.96;100.00;100895.69;5014348;28;20064;-74
2023/04/22 02:41:14;;;;;;;9.35;8.45;;;;;;;10.92;100.00;100902.72;5029914;28;20418;-73
2023/04/22 02:43:44;;;;;;;9.27;8.38;;;;;;;10.88;100.00;100906.22;5031588;28;20049;-73
2023/04/22 02:46:14;;;;;;;9.02;8.13;;;;;;;10.83;100.00;100893.91;5014273;28;20056;-74
2023/04/22 02:48:42;;;;;;;10.88;7.88;;;;;;;10.80;100.00;100892.16;5036323;28;20057;-74
2023/04/22 02:51:10;;;;;;;8.68;7.88;;;;;;;10.76;100.00;100887.75;4990612;28;20648;-73
2023/04/22 02:53:37;;;;;;;10.48;9.20;;;;;;;10.72;100.00;100888.63;5031222;28;20421;-74
2023/04/22 02:56:05;;;;;;;12.18;7.75;;;;;;;10.70;100.00;100885.09;5016266;28;20383;-73
2023/04/22 02:58:32;;;;;;;10.98;8.85;;;;;;;10.67;100.00;100882.44;5022391;28;20052;-75
2023/04/22 03:00:59;;;;;;;10.50;8.80;;;;;;;10.64;100.00;100880.69;5012794;28;20056;-73
2023/04/22 03:03:27;;;;;;;10.02;8.60;;;;;;;10.58;100.00;100874.50;5040983;28;20049;-73
2023/04/22 03:05:54;;;;;;;9.63;8.25;;;;;;;10.53;100.00;100877.13;5026123;28;20554;-73
2023/04/22 03:08:23;;;;;;;11.23;9.57;;;;;;;10.47;100.00;100882.34;4988394;28;20541;-73
2023/04/22 03:10:51;;;;;;;13.20;9.38;;;;;;;10.39;100.00;100874.41;5046821;28;20037;-73
2023/04/22 03:13:18;;;;;;;11.45;9.68;;;;;;;10.33;100.00;100880.53;5009977;28;20042;-73
2023/04/22 03:15:46;;;;;;;12.20;9.10;;;;;;;10.28;100.00;100869.09;5033199;28;20050;-73
2023/04/22 03:18:13;;;;;;;11.13;9.02;;;;;;;10.25;100.00;100868.19;5030364;28;20095;-73
2023/04/22 03:20:40;;;;;;;12.80;9.55;;;;;;;10.19;100.00;100868.13;5020146;28;20514;-74
2023/04/22 03:23:08;;;;;;;10.35;8.73;;;;;;;10.12;100.00;100869.88;4978750;28;20413;-74
2023/04/22 03:25:36;;;;;;;11.13;8.82;;;;;;;10.06;100.00;100860.19;5005043;28;20554;-74
2023/04/22 03:28:04;;;;;;;13.82;9.05;;;;;;;9.99;100.00;100855.75;5023260;28;20085;-74
2023/04/22 03:30:31;;;;;;;10.05;8.77;;;;;;;9.93;100.00;100850.47;5034870;28;20049;-74
2023/04/22 03:32:59;;;;;;;10.02;8.43;;;;;;;9.90;100.00;100845.16;5003603;28;20061;-74
2023/04/22 03:35:53;;;;;;;10.48;9.20;;;;;;;9.87;100.00;100842.53;5029951;28;20048;-74
2023/04/22 03:38:21;;;;;;;9.90;8.65;;;;;;;9.84;100.00;100848.66;4966254;28;20068;-74
2023/04/22 03:40:50;;;;;;;12.00;9.23;;;;;;;9.81;100.00;100846.03;5022817;28;20063;-74
2023/04/22 03:43:31;;;;;;;10.65;9.52;;;;;;;9.79;100.00;100842.47;5023278;28;20044;-75
2023/04/22 03:46:04;;;;;;;9.55;8.57;;;;;;;9.79;100.00;100841.59;5043259;28;20636;-75
2023/04/22 03:48:34;;;;;;;10.43;8.27;;;;;;;9.83;100.00;100835.47;5011697;28;20052;-74
2023/04/22 03:51:07;;;;;;;10.50;8.45;;;;;;;9.84;100.00;100838.13;5028027;28;20041;-72
2023/04/22 03:53:36;;;;;;;9.73;8.20;;;;;;;9.85;100.00;100834.63;4994310;28;20784;-72
2023/04/22 03:56:04;;;;;;;10.73;9.10;;;;;;;9.87;100.00;100837.28;5042956;28;20053;-75
2023/04/22 03:58:35;;;;;;;10.27;8.10;;;;;;;9.88;100.00;100831.13;5026905;28;20060;-74
2023/04/22 04:01:06;;;;;;;14.00;9.23;;;;;;;9.88;100.00;100825.84;5032747;28;20053;-74
2023/04/22 04:03:34;;;;;;;10.65;8.63;;;;;;;9.89;100.00;100825.00;5017045;28;20111;-74
2023/04/22 04:06:03;;;;;;;12.10;9.32;;;;;;;9.89;100.00;100825.88;5034828;28;20045;-74
2023/04/22 04:08:30;;;;;;;15.07;9.00;;;;;;;9.89;100.00;100828.50;5030803;28;20049;-74
2023/04/22 04:10:58;;;;;;;12.77;8.65;;;;;;;9.92;100.00;100827.63;4997485;28;20052;-74
2023/04/22 04:13:31;;;;;;;11.32;8.90;;;;;;;9.94;100.00;100820.63;5004961;28;21042;-74
2023/04/22 04:16:16;;;;;;;12.50;8.50;;;;;;;9.95;100.00;100823.28;5012034;28;20061;-74
2023/04/22 04:18:50;;;;;;;14.02;8.85;;;;;;;9.97;100.00;100818.03;5025528;28;20064;-74
2023/04/22 04:21:20;;;;;;;9.63;8.63;;;;;;;9.99;100.00;100821.53;4996297;28;20592;-74
2023/04/22 04:23:50;;;;;;;12.38;9.10;;;;;;;10.01;100.00;100818.91;5009611;28;20057;-74
2023/04/22 04:26:22;;;;;;;11.45;9.75;;;;;;;10.01;100.00;100819.78;4972627;28;20049;-74
2023/04/22 04:28:55;;;;;;;10.73;8.57;;;;;;;9.99;100.00;100818.91;5022142;28;20050;-74
2023/04/22 04:31:23;;;;;;;10.55;8.80;;;;;;;9.98;100.00;100824.16;5020066;28;20932;-74
2023/04/22 04:33:56;;;;;;;12.95;9.13;;;;;;;9.97;100.00;100812.75;5034962;28;20057;-74
2023/04/22 04:36:28;;;;;;;11.90;8.40;;;;;;;9.96;100.00;100810.97;5001311;28;20045;-74
2023/04/22 04:39:03;;;;;;;15.70;9.50;;;;;;;9.97;100.00;100814.50;5030107;28;20049;-74
2023/04/22 04:41:32;;;;;;;10.55;8.63;;;;;;;9.97;100.00;100811.88;4982998;28;22827;-74
2023/04/22 04:43:59;;;;;;;13.80;9.40;;;;;;;9.99;100.00;100816.28;4994549;28;20049;-74
2023/04/22 04:46:33;;;;;;;9.70;8.35;;;;;;;10.02;100.00;100815.41;5014494;28;20053;-74
2023/04/22 04:49:01;;;;;;;17.05;9.80;;;;;;;10.03;100.00;100814.53;5022717;28;20068;-74
2023/04/22 04:51:31;;;;;;;11.50;9.13;;;;;;;10.08;100.00;100812.81;5002065;28;20052;-74
2023/04/22 04:54:00;;;;;;;9.93;8.50;;;;;;;10.10;100.00;100817.19;5008871;28;20438;-74
2023/04/22 04:56:34;;;;;;;9.50;8.40;;;;;;;10.12;100.00;100817.22;5012172;28;20060;-74
2023/04/22 04:59:02;;;;;;;10.80;8.70;;;;;;;10.12;100.00;100815.44;4996895;28;20056;-73
2023/04/22 05:01:29;;;;;;;10.63;9.15;;;;;;;10.10;100.00;100819.84;5035357;28;20045;-74
2023/04/22 05:04:02;;;;;;;11.55;9.60;;;;;;;10.09;100.00;100812.84;5028908;28;20060;-74
2023/04/22 05:06:32;;;;;;;13.75;9.35;;;;;;;10.09;100.00;100812.84;5002673;28;20073;-74
2023/04/22 05:09:03;;;;;;;10.25;8.95;;;;;;;10.09;100.00;100820.72;5017178;28;20421;-74
2023/04/22 05:11:30;;;;;;;17.83;9.05;;;;;;;10.08;100.00;100826.84;4996042;28;20048;-74
2023/04/22 05:14:01;;;;;;;10.77;8.80;;;;;;;10.08;100.00;100818.94;4973806;28;20049;-74
2023/04/22 05:16:33;;;;;;;10.45;8.95;;;;;;;10.10;100.00;100814.56;5010184;28;20064;-74
2023/04/22 05:19:01;;;;;;;11.70;9.80;;;;;;;10.13;100.00;100817.22;5028305;28;20063;-74
2023/04/22 05:21:28;;;;;;;12.13;8.52;;;;;;;10.18;100.00;100817.25;5026529;28;20041;-74
2023/04/22 05:23:56;;;;;;;11.02;9.20;;;;;;;10.24;100.00;100819.88;5022491;28;20041;-74
2023/04/22 05:26:24;;;;;;;10.38;9.38;;;;;;;10.31;100.00;100808.53;5009051;28;20053;-74
2023/04/22 05:28:52;;;;;;;11.18;8.93;;;;;;;10.41;100.00;100813.84;4987575;28;20052;-74
2023/04/22 05:31:21;;;;;;;11.57;9.32;;;;;;;10.48;100.00;100808.59;5023601;28;20065;-74
2023/04/22 05:33:48;;;;;;;10.75;8.93;;;;;;;10.54;100.00;100808.59;5042720;28;20080;-74
2023/04/22 05:36:16;;;;;;;11.18;9.20;;;;;;;10.59;100.00;100819.19;5008834;28;20073;-74
2023/04/22 05:38:45;;;;;;;9.65;8.10;;;;;;;10.62;100.00;100813.03;5000367;28;20049;-74
2023/04/22 05:41:14;;;;;;;17.67;9.55;;;;;;;10.65;100.00;100823.59;5015368;28;20049;-74
2023/04/22 05:43:42;;;;;;;12.80;9.40;;;;;;;10.67;100.00;100817.44;4946557;28;20049;-74
2023/04/22 05:46:14;;;;;;;11.88;8.48;;;;;;;10.70;100.00;100816.56;5014458;28;20060;-74
2023/04/22 05:48:43;;;;;;;11.45;8.60;;;;;;;10.70;100.00;100816.56;5034245;28;20044;-74
2023/04/22 05:51:31;;;;;;;9.13;8.23;;;;;;;10.73;100.00;100814.78;5014544;28;20050;-74
2023/04/22 05:53:59;;;;;;;11.73;8.75;;;;;;;10.76;100.00;100820.97;5032050;28;20063;-74
2023/04/22 05:56:26;;;;;;;10.30;8.98;;;;;;;10.77;100.00;100823.59;5025453;28;20053;-74
2023/04/22 05:58:53;;;;;;;11.57;8.82;;;;;;;10.80;100.00;100822.75;5032754;28;20045;-74
2023/04/22 06:01:23;;;;;;;11.60;9.40;;;;;;;10.83;100.00;100821.00;4993728;28;20044;-74
2023/04/22 06:03:56;;;;;;;12.68;8.40;;;;;;;10.85;100.00;100821.88;5025757;28;20057;-74
2023/04/22 06:06:26;;;;;;;9.80;8.75;;;;;;;10.89;100.00;100823.63;4993410;28;20055;-74
2023/04/22 06:08:53;;;;;;;14.35;9.70;;;;;;;10.93;100.00;100817.47;5028228;28;20105;-76
2023/04/22 06:11:21;;;;;;;11.15;8.55;;;;;;;10.98;100.00;100817.47;5043828;28;20041;-76
2023/04/22 06:13:48;;;;;;;13.52;9.80;;;;;;;11.04;100.00;100806.06;4995968;28;20052;-76
2023/04/22 06:16:16;;;;;;;11.38;9.38;;;;;;;11.09;100.00;100813.09;4988923;28;20037;-76
2023/04/22 06:18:43;;;;;;;11.77;8.85;;;;;;;11.14;100.00;100815.75;5027856;28;20057;-76
2023/04/22 06:21:11;;;;;;;10.57;8.32;;;;;;;11.20;100.00;100809.59;4982856;28;20056;-76
2023/04/22 06:23:39;;;;;;;12.95;8.65;;;;;;;11.23;100.00;100814.88;5000574;28;20424;-76
2023/04/22 06:26:06;;;;;;;11.63;8.95;;;;;;;11.29;100.00;100818.38;5013158;28;20059;-76
2023/04/22 06:28:36;;;;;;;11.65;9.20;;;;;;;11.33;100.00;100816.63;5041694;28;20049;-76
2023/04/22 06:31:15;;;;;;;13.00;9.20;;;;;;;11.36;100.00;100819.28;4985885;28;20510;-76
2023/04/22 06:33:45;;;;;;;10.20;8.82;;;;;;;11.39;100.00;100819.25;5012474;28;20049;-76
2023/04/22 06:36:13;;;;;;;13.20;9.25;;;;;;;11.43;100.00;100822.75;5023695;28;20052;-76
2023/04/22 06:38:43;;;;;;;9.30;8.40;;;;;;;11.45;100.00;100813.97;5026333;28;20060;-76
2023/04/22 06:41:33;;;;;;;11.93;8.40;;;;;;;11.49;100.00;100817.47;4991599;28;20660;-76
2023/04/22 06:44:10;;;;;;;9.98;8.57;;;;;;;11.56;100.00;100816.59;5031775;28;20506;-76
2023/04/22 06:46:56;;;;;;;14.43;8.80;;;;;;;11.64;100.00;100824.50;5012380;28;20533;-76
2023/04/22 06:49:47;;;;;;;12.65;8.18;;;;;;;11.70;100.00;100814.81;5008147;28;20056;-76
2023/04/22 06:52:25;;;;;;;12.95;8.35;;;;;;;11.78;100.00;100813.94;4997920;28;20588;-76
2023/04/22 06:54:56;;;;;;;;;;;;;;;11.83;100.00;100812.13;5029232;28;20049;-76
2023/04/22 06:57:23;;;;;;;11.52;8.98;;;;;;;11.92;100.00;100814.78;5032710;28;20584;-76
2023/04/22 06:59:50;;;;;;;11.98;8.35;;;;;;;12.04;100.00;100819.16;5044889;28;20509;-76
2023/04/22 07:02:18;;;;;;;13.02;8.40;;;;;;;12.15;100.00;100819.13;5030603;28;20045;-76
2023/04/22 07:04:45;;;;;;;9.00;8.10;;;;;;;12.22;100.00;100824.38;4989992;28;20057;-76
2023/04/22 07:07:13;;;;;;;9.27;7.93;;;;;;;12.28;100.00;100820.81;5031546;28;20053;-76
2023/04/22 07:09:40;;;;;;;11.75;8.02;;;;;;;12.35;100.00;100811.13;5007303;28;20514;-76
2023/04/22 07:12:08;;;;;;;9.48;8.50;;;;;;;12.41;100.00;100811.97;5005649;28;20494;-76
2023/04/22 07:14:36;;;;;;;9.43;8.35;;;;;;;12.48;100.00;100812.81;5037513;28;20056;-76
2023/04/22 07:17:03;;;;;;;10.45;8.18;;;;;;;12.53;100.00;100813.66;5003849;28;20060;-75
2023/04/22 07:19:30;;;;;;;10.50;9.07;;;;;;;12.59;100.00;100812.75;4991483;28;20045;-76
2023/04/22 07:22:05;;;;;;;15.38;8.70;;;;;;;12.62;100.00;100812.72;5000861;28;20406;-75
2023/04/22 07:24:33;;;;;;;13.30;8.95;;;;;;;12.63;100.00;100809.22;5000942;28;20059;-75
2023/04/22 07:27:02;;;;;;;13.82;9.00;;;;;;;12.62;100.00;100805.66;5026958;28;20060;-75
2023/04/22 07:29:29;;;;;;;10.45;9.07;;;;;;;12.65;100.00;100808.31;5037916;28;20145;-76
2023/04/22 07:31:57;;;;;;;10.10;8.98;;;;;;;12.71;100.00;100806.53;5033440;28;20057;-75
2023/04/22 07:34:24;;;;;;;12.50;10.27;;;;;;;12.75;100.00;100798.53;4986850;28;20055;-75
2023/04/22 07:36:52;;;;;;;10.18;8.32;;;;;;;12.80;100.00;100796.75;5021361;28;20513;-74
2023/04/22 07:39:21;;;;;;;11.88;8.73;;;;;;;12.86;100.00;100791.41;5021044;28;20045;-75
2023/04/22 07:41:49;;;;;;;14.27;9.05;;;;;;;12.94;100.00;100799.28;5024936;28;20045;-75
2023/04/22 07:44:20;;;;;;;9.43;8.23;;;;;;;13.02;100.00;100791.31;5027269;28;20048;-75
2023/04/22 07:46:47;;;;;;;;;;;;;;;13.11;100.00;100795.66;5016229;28;20866;-74
2023/04/22 07:49:16;;;;;;;9.95;8.75;;;;;;;13.18;100.00;100794.72;5027175;28;19948;-75
2023/04/22 07:51:43;;;;;;;9.60;8.57;;;;;;;13.27;100.00;100792.00;4964209;28;20053;-75
2023/04/22 07:54:11;;;;;;;15.10;9.32;;;;;;;13.36;100.00;100796.34;5022844;28;20068;-74
2023/04/22 07:56:38;;;;;;;11.32;8.95;;;;;;;13.46;100.00;100782.16;5026005;28;20151;-74
2023/04/22 07:59:07;;;;;;;14.40;8.85;;;;;;;13.56;100.00;100783.81;5027032;28;20056;-74
2023/04/22 08:01:34;;;;;;;12.18;9.45;;;;;;;13.66;100.00;100784.56;5027163;28;20037;-74
2023/04/22 08:04:01;;;;;;;11.77;8.38;;;;;;;13.74;100.00;100789.78;5001947;28;20042;-74
2023/04/22 08:06:29;;;;;;;13.32;8.75;;;;;;;13.82;100.00;100783.53;4983124;28;20037;-74
2023/04/22 08:08:57;;;;;;;10.40;8.02;;;;;;;13.92;100.00;100779.00;5017915;28;20049;-74
2023/04/22 08:11:24;;;;;;;10.85;8.50;;;;;;;13.98;100.00;100775.41;5033064;28;20044;-75
2023/04/22 08:13:51;;;;;;;9.20;7.88;;;;;;;14.04;100.00;100776.22;5015328;28;20041;-75
2023/04/22 08:16:19;;;;;;;12.00;8.90;;;;;;;14.11;100.00;100776.13;5025227;28;20067;-75
2023/04/22 08:18:46;;;;;;;9.45;8.50;;;;;;;14.18;100.00;100777.81;5023030;28;20057;-75
2023/04/22 08:21:13;;;;;;;14.63;8.77;;;;;;;14.25;100.00;100771.50;5006884;28;20083;-75
2023/04/22 08:23:40;;;;;;;13.88;8.73;;;;;;;14.33;100.00;100769.66;4952177;28;20052;-75
2023/04/22 08:26:13;;;;;;;13.88;8.50;;;;;;;14.42;100.00;100763.34;4995821;28;20945;-75
2023/04/22 08:28:41;;;;;;;12.15;8.82;;;;;;;14.55;100.00;100758.72;5014278;28;20056;-75
2023/04/22 08:31:10;;;;;;;9.20;7.68;;;;;;;14.62;100.00;100752.47;5019828;28;20052;-75
2023/04/22 08:33:41;;;;;;;9.93;7.78;;;;;;;14.76;100.00;100750.50;5023343;28;20490;-75
2023/04/22 08:36:09;;;;;;;11.60;7.68;;;;;;;14.90;100.00;100752.94;5005784;28;20049;-76
2023/04/22 08:38:37;;;;;;;10.60;7.00;;;;;;;15.04;100.00;100739.44;4997427;28;20056;-75
2023/04/22 08:41:05;;;;;;;8.57;7.68;;;;;;;15.18;100.00;100734.78;5015317;28;20048;-74
2023/04/22 08:43:33;;;;;;;10.07;6.80;;;;;;;15.33;100.00;100741.59;5013678;28;20049;-75
2023/04/22 08:46:01;;;;;;;9.10;6.25;;;;;;;15.40;100.00;100737.88;5035250;28;20046;-77
2023/04/22 08:48:28;;;;;;;9.20;7.20;;;;;;;15.47;100.00;100737.78;5045058;28;20056;-75
2023/04/22 08:50:56;;;;;;;7.82;7.05;;;;;;;15.64;100.00;100740.13;5027835;28;20059;-77
2023/04/22 08:53:24;;;;;;;8.85;7.20;;;;;;;15.85;100.00;100726.44;4994077;28;20041;-75
2023/04/22 08:55:55;;;;;;;9.55;7.15;;;;;;;16.07;100.00;100721.56;5011272;28;20513;-77
2023/04/22 08:58:23;;;;;;;7.72;6.82;;;;;;;16.28;100.00;100722.00;5015394;28;20052;-77
2023/04/22 09:00:51;;;;;;;6.53;6.00;;;;;;;16.45;100.00;100724.28;5032311;28;20053;-75
2023/04/22 09:03:29;;;;;;;7.13;6.35;;;;;;;16.59;100.00;100723.94;5033393;28;20041;-82
2023/04/22 09:05:59;;;;;;;8.20;6.35;;;;;;;16.72;100.00;100717.41;5025974;28;20053;-75
2023/04/22 09:08:28;;;;;;;9.23;7.25;;;;;;;16.82;100.00;100718.06;5003237;28;20049;-75
2023/04/22 09:10:56;;;;;;;11.00;8.02;;;;;;;16.90;100.00;100722.31;5000800;28;20155;-77
2023/04/22 09:13:25;;;;;;;8.68;7.07;;;;;;;16.99;100.00;100730.97;5030107;28;20037;-76
2023/04/22 09:15:52;;;;;;;7.05;6.45;;;;;;;17.03;100.00;100728.22;5030428;28;20390;-77
2023/04/22 09:18:20;;;;;;;7.57;6.65;;;;;;;17.06;100.00;100729.91;5011579;28;20056;-76
2023/04/22 09:20:48;;;;;;;9.25;6.47;;;;;;;17.10;100.00;100726.25;5020838;28;20044;-74
2023/04/22 09:23:15;;;;;;;7.47;6.75;;;;;;;17.13;100.00;100732.38;5014247;28;20053;-76
2023/04/22 09:25:45;;;;;;;7.20;6.50;;;;;;;17.16;100.00;100723.44;4994538;28;20498;-76
2023/04/22 09:28:17;;;;;;;8.52;6.05;;;;;;;17.22;100.00;100711.75;5033341;28;20516;-76
2023/04/22 09:30:45;;;;;;;8.07;7.18;;;;;;;17.30;100.00;100717.75;5026756;28;20045;-76
2023/04/22 09:33:13;;;;;;;8.25;6.88;;;;;;;17.38;100.00;100714.91;5007770;28;20053;-76
2023/04/22 09:35:42;;;;;;;8.75;6.93;;;;;;;17.45;100.00;100722.66;5021914;28;20056;-76
2023/04/22 09:38:11;;;;;;;7.70;6.43;;;;;;;17.57;100.00;100725.91;5022044;28;20049;-77
2023/04/22 09:40:43;;;;;;;11.40;6.47;;;;;;;17.65;100.00;100719.44;4979372;28;20049;-77
2023/04/22 09:43:10;;;;;;;8.85;6.95;;;;;;;17.72;100.00;100717.50;5012235;28;20041;-77
2023/04/22 09:45:41;;;;;;;7.20;6.50;;;;;;;17.74;100.00;100711.19;5036453;28;20405;-76
2023/04/22 09:48:11;;;;;;;7.00;6.40;;;;;;;17.79;100.00;100708.41;5027128;28;20541;-75
2023/04/22 09:50:46;;;;;;;9.02;6.57;;;;;;;17.85;100.00;100702.91;5040595;28;20052;-75
2023/04/22 09:53:15;;;;;;;8.50;5.82;;;;;;;17.91;100.00;100696.53;5026589;28;20048;-75
2023/04/22 09:55:49;;;;;;;6.75;6.13;;;;;;;18.05;100.00;100698.78;4990872;28;20426;-77
2023/04/22 09:58:18;;;;;;;6.65;6.05;;;;;;;18.07;100.00;100702.28;5033944;28;20812;-77
2023/04/22 10:00:49;;;;;;;7.63;5.75;;;;;;;18.16;100.00;100690.47;5032779;28;20041;-76
2023/04/22 10:03:17;;;;;;;7.57;5.95;;;;;;;18.22;100.00;100687.59;5031890;28;20057;-75
2023/04/22 10:05:46;;;;;;;8.68;5.68;;;;;;;18.34;100.00;100694.38;5039162;28;20069;-76
2023/04/22 10:08:15;;;;;;;6.13;5.22;;;;;;;18.40;99.73;100695.03;4988941;28;20041;-75
2023/04/22 10:10:43;;;;;;;5.75;5.15;;;;;;;18.43;98.89;100700.28;5003040;28;20045;-75
2023/04/22 10:13:11;;;;;;;6.45;5.85;;;;;;;18.45;99.29;100701.09;5033170;28;20447;-74
2023/04/22 10:15:57;;;;;;;6.88;5.75;;;;;;;18.47;98.65;100691.25;5042935;28;20052;-74
2023/04/22 10:18:27;;;;;;;7.88;5.53;;;;;;;18.50;98.10;100685.78;5008671;28;20054;-74
2023/04/22 10:20:57;;;;;;;6.32;5.82;;;;;;;18.60;97.47;100680.16;5046104;28;20049;-74
2023/04/22 10:23:24;;;;;;;8.13;5.78;;;;;;;18.64;93.79;100666.69;5021639;28;20045;-74
2023/04/22 10:25:53;;;;;;;6.30;5.57;;;;;;;18.72;95.43;100674.44;4998645;28;20109;-74
2023/04/22 10:28:23;;;;;;;5.43;4.80;;;;;;;18.86;94.05;100650.84;5027951;28;20045;-74
2023/04/22 10:30:50;;;;;;;7.63;4.95;;;;;;;19.01;93.48;100649.44;5042926;28;20049;-74
2023/04/22 10:33:26;;;;;;;5.70;5.03;;;;;;;19.12;91.20;100645.53;5002308;28;20049;-74
2023/04/22 10:36:07;;;;;;;6.43;4.95;;;;;;;19.25;91.14;100641.50;5043563;28;20092;-74
2023/04/22 10:38:40;;;;;;;6.25;5.65;;;;;;;19.38;89.24;100641.94;5043814;28;20053;-74
2023/04/22 10:41:15;;;;;;;5.32;4.82;;;;;;;19.47;89.09;100647.78;5001217;28;20498;-74
2023/04/22 10:43:47;;;;;;;5.72;4.97;;;;;;;19.55;88.98;100655.53;5021216;28;20049;-74
2023/04/22 10:46:36;;;;;;;6.40;5.60;;;;;;;19.61;83.04;100646.41;5040474;28;20418;-74
2023/04/22 10:49:16;;;;;;;4.70;4.30;;;;;;;19.66;85.62;100639.97;5016403;28;20037;-74
2023/04/22 10:51:46;;;;;;;4.93;4.53;;;;;;;19.76;84.25;100647.66;5022087;28;20041;-74
2023/04/22 10:54:35;;;;;;;6.10;4.30;;;;;;;19.76;81.49;100637.84;5032709;28;20056;-75
2023/04/22 10:57:18;;;;;;;5.90;4.32;;;;;;;19.79;82.49;100632.38;4984721;28;20116;-74
2023/04/22 10:59:45;;;;;;;6.93;4.05;;;;;;;19.88;85.22;100633.81;5041114;28;20061;-74
2023/04/22 11:02:15;;;;;;;4.47;3.50;;;;;;;20.01;82.71;100629.72;5024751;28;20052;-74
2023/04/22 11:04:43;;;;;;;4.53;4.03;;;;;;;20.12;82.55;100629.31;5004967;28;20044;-74
2023/04/22 11:07:21;;;;;;;6.72;4.10;;;;;;;20.17;81.67;100627.31;5044828;28;20056;-74
2023/04/22 11:09:51;;;;;;;4.30;3.90;;;;;;;20.18;80.88;100623.69;5018254;28;20053;-76
2023/04/22 11:12:37;;;;;;;7.65;4.18;;;;;;;20.20;79.13;100627.19;4989126;28;20056;-75
2023/04/22 11:15:05;;;;;;;5.30;3.60;;;;;;;20.20;80.74;100621.84;5018563;28;20056;-75
2023/04/22 11:17:34;;;;;;;4.95;3.72;;;;;;;20.28;81.14;100618.84;5042185;28;20561;-76
2023/04/22 11:20:04;;;;;;;4.28;3.55;;;;;;;20.29;79.82;100615.25;5011649;28;20502;-75
2023/04/22 11:22:36;;;;;;;3.45;3.25;;;;;;;20.38;81.26;100612.19;5036823;28;20509;-75
2023/04/22 11:25:05;;;;;;;5.72;3.45;;;;;;;20.47;81.50;100597.53;5027215;28;20511;-75